Time;durP1;ratioP1;P1;durP2;ratioP2;P2;SDS_P1;SDS_P2;PMS_P1;PMS_P2;Temp;Humidity;BMP_temperature;BMP_pressure;BME280_temperature;BME280_humidity;BME280_pressure;Samples;Min_cycle;Max_cycle;Signal;HPM_P1;HPM_P2
2022/07/12 00:00:41;;;;;;;;;7.00;7.00;;;;;24.46;53.21;101030.09;146607;640;46030;-77
2022/07/12 00:03:32;;;;;;;;;8.50;7.25;;;;;24.42;53.56;101034.47;146606;569;46016;-75
2022/07/12 00:06:25;;;;;;;;;7.50;6.75;;;;;24.43;53.57;101038.91;146608;653;46010;-72
2022/07/12 00:09:17;;;;;;;;;7.00;6.25;;;;;24.40;54.20;101045.06;146602;599;47014;-72
2022/07/12 00:12:10;;;;;;;;;7.00;6.75;;;;;24.34;53.82;101046.84;146607;666;46020;-76
2022/07/12 00:15:02;;;;;;;;;9.25;7.00;;;;;24.30;53.11;101039.75;146608;663;45918;-80
2022/07/12 00:17:54;;;;;;;;;8.00;8.00;;;;;24.27;52.62;101043.31;146611;714;46010;-82
2022/07/12 00:20:46;;;;;;;;;9.50;7.00;;;;;24.26;52.70;101044.16;146607;713;46918;-77
2022/07/12 00:23:39;;;;;;;;;7.00;7.00;;;;;24.19;53.15;101031.81;146610;625;45020;-80
2022/07/12 00:26:31;;;;;;;;;7.75;7.75;;;;;24.16;52.86;101027.41;146609;694;45918;-79
2022/07/12 00:29:23;;;;;;;;;7.75;5.75;;;;;24.22;53.30;101038.88;146607;672;46020;-77
2022/07/12 00:32:15;;;;;;;;;8.25;7.50;;;;;24.27;52.98;101040.66;146605;653;45918;-75
2022/07/12 00:35:09;;;;;;;;;9.00;9.00;;;;;24.34;52.88;101037.13;146609;689;45021;-80
2022/07/12 00:38:01;;;;;;;;;5.75;5.75;;;;;24.45;52.00;101033.59;146606;643;46918;-75
2022/07/12 00:40:53;;;;;;;;;8.00;7.50;;;;;24.57;52.11;101033.59;146608;668;46010;-71
2022/07/12 00:43:45;;;;;;;;;8.25;6.00;;;;;24.69;51.75;101035.34;146608;640;46012;-85
2022/07/12 00:46:37;;;;;;;;;6.25;6.25;;;;;24.76;51.31;101037.97;146609;679;46010;-83
2022/07/12 00:49:30;;;;;;;;;6.00;6.00;;;;;24.83;51.53;101042.41;146607;577;46012;-78
2022/07/12 00:52:23;;;;;;;;;5.00;5.00;;;;;24.91;51.00;101052.09;146607;733;46020;-77
2022/07/12 00:55:16;;;;;;;;;6.75;5.75;;;;;24.97;51.31;101052.09;146608;569;46014;-78
2022/07/12 00:58:09;;;;;;;;;7.00;7.00;;;;;24.99;50.59;101053.84;146609;584;46010;-72
2022/07/12 01:01:02;;;;;;;;;7.00;7.00;;;;;25.00;51.10;101054.72;146604;602;46017;-72
2022/07/12 01:03:56;;;;;;;;;7.50;6.50;;;;;24.99;51.38;101053.84;146607;662;46010;-77
2022/07/12 01:06:50;;;;;;;;;6.00;6.00;;;;;24.97;51.16;101068.00;146605;617;47014;-72
2022/07/12 01:09:42;;;;;;;;;6.00;6.00;;;;;24.95;51.27;101067.09;146607;585;46021;-72
2022/07/12 01:12:34;;;;;;;;;5.00;4.00;;;;;24.97;51.44;101068.88;146606;641;46016;-71
2022/07/12 01:15:26;;;;;;;;;8.00;7.50;;;;;24.98;51.46;101065.31;146607;672;46021;-81
2022/07/12 01:18:19;;;;;;;;;6.25;5.25;;;;;24.98;51.24;101060.03;146605;661;46014;-82
2022/07/12 01:21:13;;;;;;;;;6.25;6.25;;;;;24.97;51.94;101065.34;146607;667;46020;-82
2022/07/12 01:24:06;;;;;;;;;5.50;5.50;;;;;24.90;51.91;101067.13;146606;585;46915;-73
2022/07/12 01:26:58;;;;;;;;;7.75;7.00;;;;;24.80;51.53;101071.56;146607;570;46020;-81
2022/07/12 01:29:50;;;;;;;;;5.75;5.25;;;;;24.75;52.25;101070.69;146605;592;46016;-83
2022/07/12 01:32:43;;;;;;;;;6.25;6.25;;;;;24.65;53.54;101069.81;146605;588;46021;-81
2022/07/12 01:35:36;;;;;;;;;6.00;6.00;;;;;24.54;53.42;101071.59;146606;656;46918;-81
2022/07/12 01:38:28;;;;;;;;;7.00;7.00;;;;;24.43;53.45;101082.22;146609;608;46010;-72
2022/07/12 01:41:21;;;;;;;;;6.00;6.00;;;;;24.34;53.51;101076.88;146607;642;46016;-73
2022/07/12 01:44:14;;;;;;;;;8.50;7.50;;;;;24.24;53.48;101082.16;146608;578;46021;-74
2022/07/12 01:47:06;;;;;;;;;7.33;6.33;;;;;24.13;52.84;101079.50;146608;575;46017;-78
2022/07/12 01:49:58;;;;;;;;;6.67;6.00;;;;;24.07;53.35;101077.72;146605;590;46020;-75
2022/07/12 01:52:50;;;;;;;;;7.00;7.00;;;;;24.05;52.75;101082.16;146605;586;46017;-75
2022/07/12 01:55:42;;;;;;;;;5.67;5.67;;;;;24.06;52.66;101085.69;146607;579;46020;-75
2022/07/12 01:58:35;;;;;;;;;5.67;5.67;;;;;24.10;52.94;101075.06;146607;632;46016;-76
2022/07/12 02:01:28;;;;;;;;;8.00;5.67;;;;;24.17;54.48;101081.25;146609;574;46011;-72
2022/07/12 02:04:21;;;;;;;;;7.00;7.00;;;;;24.18;54.38;101077.75;146605;651;46016;-73
2022/07/12 02:07:13;;;;;;;;;6.50;6.50;;;;;24.20;54.05;101078.63;146605;589;46020;-73
2022/07/12 02:10:05;;;;;;;;;9.67;9.00;;;;;24.23;55.20;101086.56;146605;650;46016;-86
2022/07/12 02:12:59;;;;;;;;;6.00;6.00;;;;;24.22;54.18;101082.16;146610;620;45020;-81
2022/07/12 02:15:51;;;;;;;;;7.00;7.00;;;;;24.24;55.07;101080.41;146605;636;47012;-81
2022/07/12 02:18:43;;;;;;;;;8.00;7.25;;;;;24.17;55.90;101076.88;146627;618;45010;-80
2022/07/12 02:21:36;;;;;;;;;8.50;8.50;;;;;24.12;55.09;101077.75;146626;693;45016;-81
2022/07/12 02:24:28;;;;;;;;;5.00;5.00;;;;;24.15;55.05;101068.03;146628;579;45021;-80
2022/07/12 02:27:20;;;;;;;;;8.75;8.75;;;;;24.22;56.95;101073.34;146629;702;45012;-77
2022/07/12 02:30:14;;;;;;;;;8.00;7.00;;;;;24.21;55.08;101077.75;146628;678;45021;-77
2022/07/12 02:33:06;;;;;;;;;7.00;6.50;;;;;24.24;55.00;101068.91;146626;615;45016;-77
2022/07/12 02:35:58;;;;;;;;;7.67;7.00;;;;;24.31;56.15;101083.94;146632;572;45012;-78
2022/07/12 02:38:50;;;;;;;;;6.67;6.67;;;;;24.33;55.23;101082.16;146630;579;45012;-78
2022/07/12 02:41:42;;;;;;;;;8.25;8.25;;;;;24.34;56.32;101079.53;146629;573;45024;-77
2022/07/12 02:44:34;;;;;;;;;10.00;9.00;;;;;24.34;55.84;101083.94;146629;597;45017;-72
2022/07/12 02:47:26;;;;;;;;;7.67;7.67;;;;;24.35;55.33;101088.34;146631;588;45010;-73
2022/07/12 02:50:18;;;;;;;;;7.00;7.00;;;;;24.32;56.96;101091.88;146628;638;46918;-73
2022/07/12 02:53:14;;;;;;;;;10.00;10.00;;;;;24.25;56.70;101086.59;146628;674;45021;-72
2022/07/12 02:56:07;;;;;;;;;10.67;9.67;;;;;24.16;58.56;101092.75;146625;628;45016;-73
2022/07/12 02:58:59;;;;;;;;;10.00;10.00;;;;;24.10;58.83;101090.09;146627;610;45915;-75
2022/07/12 03:01:51;;;;;;;;;8.75;8.75;;;;;24.01;59.01;101077.72;146626;566;45012;-74
2022/07/12 03:04:43;;;;;;;;;9.75;8.50;;;;;23.96;58.34;101085.66;146628;564;45020;-73
2022/07/12 03:07:36;;;;;;;;;7.25;7.25;;;;;23.94;58.85;101095.34;146624;655;45919;-73
2022/07/12 03:10:28;;;;;;;;;10.00;9.00;;;;;23.94;59.06;101090.06;146630;688;46010;-72
2022/07/12 03:13:20;;;;;;;;;10.75;9.25;;;;;23.91;60.22;101091.81;146627;606;45016;-75
2022/07/12 03:16:13;;;;;;;;;9.50;9.50;;;;;23.87;59.14;101093.59;146627;575;45020;-75
2022/07/12 03:19:05;;;;;;;;;9.75;9.75;;;;;23.85;59.48;101095.34;146605;664;46016;-75
2022/07/12 03:21:57;;;;;;;;;9.75;8.00;;;;;23.86;58.80;101101.50;146608;573;46021;-76
2022/07/12 03:24:49;;;;;;;;;8.00;8.00;;;;;23.86;59.01;101093.56;146604;605;46918;-72
2022/07/12 03:27:42;;;;;;;;;9.00;9.00;;;;;23.84;59.08;101098.00;146608;621;46030;-72
2022/07/12 03:30:34;;;;;;;;;8.00;7.00;;;;;23.86;59.17;101101.50;146604;583;46014;-72
2022/07/12 03:33:26;;;;;;;;;8.50;8.00;;;;;23.85;60.45;101105.94;146609;707;46010;-75
2022/07/12 03:36:17;;;;;;;;;10.50;9.50;;;;;23.83;59.77;101106.81;146607;667;46013;-72
2022/07/12 03:39:10;;;;;;;;;8.50;8.50;;;;;23.82;61.77;101116.50;146609;595;46010;-70
2022/07/12 03:42:02;;;;;;;;;7.75;6.75;;;;;23.78;59.40;101114.75;146607;643;45021;-72
2022/07/12 03:44:54;;;;;;;;;9.00;8.75;;;;;23.80;60.26;101113.00;146607;571;46010;-74
2022/07/12 03:47:47;;;;;;;;;7.50;7.00;;;;;23.80;59.18;101104.13;146604;565;46016;-73
2022/07/12 03:50:39;;;;;;;;;8.25;8.25;;;;;23.89;58.36;101118.28;146608;582;46021;-75
2022/07/12 03:53:31;;;;;;;;;9.00;7.00;;;;;23.93;58.59;101112.16;146605;578;46012;-72
2022/07/12 03:59:33;;;;;;;;;8.75;8.75;;;;;24.09;57.98;101118.34;146608;564;45028;-71
2022/07/12 04:02:26;;;;;;;;;8.75;8.75;;;;;24.16;57.81;101122.78;146609;685;46010;-71
2022/07/12 04:05:17;;;;;;;;;7.75;7.25;;;;;24.25;57.77;101123.69;146606;573;46012;-70
2022/07/12 04:08:10;;;;;;;;;8.00;7.00;;;;;24.27;59.03;101124.53;146610;570;46010;-70
2022/07/12 04:11:02;;;;;;;;;8.33;8.00;;;;;24.22;59.30;101119.25;146608;605;45016;-70
2022/07/12 04:13:54;;;;;;;;;8.00;7.75;;;;;23.07;59.33;100945.97;146607;695;46011;-75
2022/07/12 04:16:46;;;;;;;;;7.00;6.67;;;;;23.21;58.08;100978.66;146607;652;46014;-77
2022/07/12 04:19:38;;;;;;;;;8.00;8.00;;;;;24.13;58.34;101148.38;146605;571;47010;-72
2022/07/12 04:22:30;;;;;;;;;6.75;6.75;;;;;24.16;57.73;101148.41;146605;563;46918;-73
2022/07/12 04:25:24;;;;;;;;;8.00;7.00;;;;;24.23;57.48;101144.88;146606;636;46020;-74
2022/07/12 04:28:16;;;;;;;;;10.25;10.25;;;;;24.31;57.77;101140.47;146605;647;46017;-68
2022/07/12 04:31:12;;;;;;;;;8.00;8.00;;;;;24.36;57.72;101146.69;146608;587;46020;-68
2022/07/12 04:34:04;;;;;;;;;8.00;7.00;;;;;24.41;57.41;101146.66;146606;570;46014;-68
2022/07/12 04:36:57;;;;;;;;;9.25;9.00;;;;;24.38;57.14;101149.31;146609;653;46010;-67
2022/07/12 04:39:48;;;;;;;;;7.33;7.00;;;;;24.41;57.03;101152.88;146608;586;46012;-67
2022/07/12 04:42:41;;;;;;;;;8.33;8.33;;;;;24.47;56.92;101146.72;146609;612;46011;-69
2022/07/12 04:45:32;;;;;;;;;8.75;8.25;;;;;24.55;57.61;101154.66;146606;672;46012;-68
2022/07/12 04:48:25;;;;;;;;;8.00;8.00;;;;;24.58;57.55;101159.94;146608;578;46020;-69
2022/07/12 04:51:17;;;;;;;;;9.00;7.75;;;;;24.59;57.75;101161.75;146605;574;45918;-70
2022/07/12 04:54:09;;;;;;;;;9.33;8.67;;;;;24.63;57.51;101161.72;146611;645;46010;-68
2022/07/12 04:57:01;;;;;;;;;9.50;8.25;;;;;24.67;58.42;101162.59;146605;681;47012;-68
2022/07/12 04:59:54;;;;;;;;;7.00;6.33;;;;;24.73;57.71;101164.38;146608;564;46020;-68
2022/07/12 05:02:46;;;;;;;;;8.00;7.67;;;;;24.76;57.65;101170.56;146605;563;46016;-69
2022/07/12 05:05:38;;;;;;;;;9.00;7.50;;;;;24.94;57.74;101176.75;146608;583;46020;-70
2022/07/12 05:08:30;;;;;;;;;10.25;9.00;;;;;25.18;57.10;101176.78;146607;576;46012;-70
2022/07/12 05:11:23;;;;;;;;;8.75;8.75;;;;;25.44;56.67;101166.09;146608;573;46012;-69
2022/07/12 05:14:15;;;;;;;;;11.00;8.33;;;;;25.77;56.34;101173.06;146605;570;46013;-70
2022/07/12 05:17:07;;;;;;;;;11.00;11.00;;;;;26.10;55.39;101165.81;146609;621;46010;-70
2022/07/12 05:20:00;;;;;;;;;1.67;1.67;;;;;26.31;51.71;101159.50;146606;653;46017;-71
2022/07/12 05:22:52;;;;;;;;;9.00;7.00;;;;;26.54;51.08;101166.47;146601;573;46914;-72
2022/07/12 05:25:45;;;;;;;;;7.00;7.00;;;;;26.70;50.60;101168.13;146606;666;46014;-71
2022/07/12 05:28:37;;;;;;;;;13.50;11.25;;;;;26.78;51.74;101174.25;146609;619;46010;-74
2022/07/12 05:31:30;;;;;;;;;16.75;15.50;;;;;26.89;52.84;101179.50;146606;579;46016;-74
2022/07/12 05:34:22;;;;;;;;;15.00;14.75;;;;;27.03;51.43;101185.56;146607;614;47010;-74
2022/07/12 05:37:14;;;;;;;;;19.50;17.75;;;;;27.16;51.85;101184.56;146606;566;46017;-72
2022/07/12 05:40:06;;;;;;;;;11.25;10.75;;;;;27.27;51.65;101191.59;146605;600;46020;-73
2022/07/12 05:42:58;;;;;;;;;11.00;9.00;;;;;27.35;51.89;101187.94;146604;692;46017;-74
2022/07/12 05:45:50;;;;;;;;;13.75;13.75;;;;;27.37;51.20;101198.56;146606;577;46020;-73
2022/07/12 05:48:43;;;;;;;;;20.25;19.50;;;;;27.47;50.66;101199.34;146603;588;46918;-73
2022/07/12 05:54:53;;;;;;;;;14.50;11.75;;;;;27.47;51.37;101213.53;146607;637;46034;-73
2022/07/12 05:57:45;;;;;;;;;8.00;8.00;;;;;27.40;50.80;101219.84;146607;673;46021;-73
2022/07/12 06:00:37;;;;;;;;;10.00;8.00;;;;;25.62;51.53;100943.88;146607;671;46016;-73
2022/07/12 06:03:30;;;;;;;;;11.00;10.00;;;;;27.28;51.44;101219.97;146607;575;46010;-73
2022/07/12 06:06:21;;;;;;;;;11.75;11.00;;;;;27.28;50.84;101230.63;146606;597;45017;-72
2022/07/12 06:09:14;;;;;;;;;11.00;9.75;;;;;27.24;49.66;101224.44;146606;684;46020;-72
2022/07/12 06:12:06;;;;;;;;;7.75;7.75;;;;;27.21;49.81;101240.44;146607;702;46017;-71
2022/07/12 06:14:58;;;;;;;;;9.00;8.00;;;;;27.23;49.17;101228.00;146608;630;46010;-71
2022/07/12 06:17:50;;;;;;;;;7.75;7.50;;;;;27.32;48.26;101249.22;146606;645;46012;-72
2022/07/12 06:20:42;;;;;;;;;8.50;7.25;;;;;27.43;48.26;101235.78;146607;641;46011;-71
2022/07/12 06:23:35;;;;;;;;;8.33;7.00;;;;;26.58;48.24;101065.38;146604;657;47014;-72
2022/07/12 06:26:27;;;;;;;;;8.25;7.00;;;;;27.79;47.66;101229.22;146607;605;46020;-73
2022/07/12 06:29:19;;;;;;;;;7.67;7.67;;;;;28.00;47.01;101237.84;146608;569;46012;-71
2022/07/12 06:32:12;;;;;;;;;6.33;6.33;;;;;28.12;45.67;101231.47;146609;564;46020;-73
2022/07/12 06:35:04;;;;;;;;;6.25;6.25;;;;;28.08;45.85;101235.97;146608;566;46013;-72
2022/07/12 06:37:56;;;;;;;;;7.00;6.00;;;;;27.95;45.21;101245.91;146607;671;47010;-71
2022/07/12 06:40:48;;;;;;;;;7.75;6.00;;;;;27.86;45.75;101240.69;146605;575;46016;-71
2022/07/12 06:43:41;;;;;;;;;5.33;4.67;;;;;27.80;45.19;101246.09;146609;630;46010;-71
2022/07/12 06:46:33;;;;;;;;;8.50;8.25;;;;;27.71;46.36;101243.50;146606;612;46014;-71
2022/07/12 06:49:25;;;;;;;;;6.33;6.33;;;;;27.62;46.12;101240.00;146608;579;46021;-71
2022/07/12 06:52:17;;;;;;;;;6.00;5.00;;;;;27.51;45.71;101244.59;146603;572;46016;-71
2022/07/12 06:55:11;;;;;;;;;5.75;5.00;;;;;26.45;47.29;101077.00;146608;639;46030;-71
2022/07/12 06:58:03;;;;;;;;;7.67;7.67;;;;;27.36;47.14;101248.28;146607;658;46016;-69
2022/07/12 07:00:55;;;;;;;;;7.00;6.25;;;;;27.36;46.21;101250.94;146608;580;46010;-72
2022/07/12 07:03:47;;;;;;;;;7.00;5.00;;;;;27.37;46.01;101246.50;146605;694;46015;-68
2022/07/12 07:06:39;;;;;;;;;7.50;7.00;;;;;27.40;45.04;101247.34;146609;586;46010;-68
2022/07/12 07:09:32;;;;;;;;;6.00;5.75;;;;;27.45;46.39;101249.97;146604;564;47012;-69
2022/07/12 07:12:24;;;;;;;;;7.25;7.25;;;;;27.47;45.60;101248.16;146606;694;47011;-69
2022/07/12 07:15:16;;;;;;;;;6.25;6.25;;;;;27.51;45.38;101249.94;146606;596;46016;-69
2022/07/12 07:18:09;;;;;;;;;7.00;6.25;;;;;26.63;46.24;101067.97;146608;571;46010;-69
2022/07/12 07:21:02;;;;;;;;;6.67;5.33;;;;;27.79;45.04;101244.34;146604;569;46016;-71
2022/07/12 07:23:55;;;;;;;;;7.50;7.50;;;;;27.86;44.57;101248.69;146608;579;46010;-71
2022/07/12 07:26:47;;;;;;;;;4.75;4.75;;;;;27.91;44.17;101253.94;146606;581;46016;-70
2022/07/12 07:32:49;;;;;;;;;8.75;8.75;;;;;27.88;45.63;101252.19;146605;637;46916;-71
2022/07/12 07:35:43;;;;;;;;;7.00;6.50;;;;;28.05;44.54;101249.34;146608;603;46012;-71
2022/07/12 07:38:35;;;;;;;;;6.00;6.00;;;;;28.43;43.25;101253.28;146605;575;46016;-70
2022/07/12 07:41:28;;;;;;;;;7.00;6.25;;;;;28.75;43.80;101258.16;146608;572;46023;-70
2022/07/12 07:44:21;;;;;;;;;8.33;6.33;;;;;29.08;42.67;101245.22;146606;566;46016;-72
2022/07/12 07:47:14;;;;;;;;;7.75;6.75;;;;;29.32;40.00;101251.91;146608;589;46010;-71
2022/07/12 07:50:07;;;;;;;;;8.00;8.00;;;;;29.45;41.36;101254.31;146603;622;46918;-73
2022/07/12 07:53:00;;;;;;;;;6.25;5.75;;;;;29.56;37.94;101251.44;146610;569;46010;-71
2022/07/12 07:55:51;;;;;;;;;7.25;6.75;;;;;29.60;38.93;101245.12;146604;629;46016;-72
2022/07/12 07:58:43;;;;;;;;;9.00;8.25;;;;;29.79;36.52;101253.72;146611;677;45914;-71
2022/07/12 08:04:53;;;;;;;;;8.25;6.75;;;;;30.21;39.26;101263.56;146607;564;46010;-71
2022/07/12 08:07:45;;;;;;;;;6.75;6.75;;;;;30.34;36.50;101249.91;146605;691;46920;-70
2022/07/12 08:10:37;;;;;;;;;6.00;6.00;;;;;30.50;35.91;101245.09;146610;662;46011;-70
2022/07/12 08:13:29;;;;;;;;;7.00;6.75;;;;;30.66;35.42;101240.25;146604;597;46918;-72
2022/07/12 08:16:21;;;;;;;;;5.00;5.00;;;;;30.79;35.75;101239.06;146610;639;47012;-72
2022/07/12 08:19:13;;;;;;;;;6.00;6.00;;;;;30.92;34.65;101244.13;146607;620;46016;-70
2022/07/12 08:22:05;;;;;;;;;6.67;6.67;;;;;31.08;34.22;101234.75;146610;563;46010;-71
2022/07/12 08:24:58;;;;;;;;;6.67;6.67;;;;;31.24;34.85;101238.78;146606;564;46016;-72
2022/07/12 08:27:50;;;;;;;;;8.00;6.00;;;;;31.40;32.46;101244.69;146607;648;46020;-72
2022/07/12 08:30:42;;;;;;;;;6.00;4.00;;;;;31.56;33.25;101246.91;146608;647;46034;-69
2022/07/12 08:33:34;;;;;;;;;6.33;5.33;;;;;31.72;32.44;101245.59;146608;606;46021;-77
2022/07/12 08:36:26;;;;;;;;;4.67;4.67;;;;;31.81;34.10;101239.97;146606;573;46016;-72
2022/07/12 08:39:18;;;;;;;;;5.67;5.33;;;;;31.96;34.02;101235.97;146608;645;46020;-71
2022/07/12 08:42:12;;;;;;;;;3.00;3.00;;;;;32.06;32.69;101237.47;146606;587;46016;-72
2022/07/12 08:45:05;;;;;;;;;8.33;5.33;;;;;32.11;32.79;101240.00;146608;580;46020;-71
2022/07/12 08:47:57;;;;;;;;;5.25;5.25;;;;;32.07;32.22;101228.50;146605;574;46016;-74
2022/07/12 08:51:11;;;;;;;;;5.67;5.00;;;;;32.01;34.75;101236.72;146610;629;45914;-74
2022/07/12 08:54:15;;;;;;;;;5.25;5.00;;;;;32.00;34.06;101234.97;146605;579;46017;-72
2022/07/12 08:57:08;;;;;;;;;6.00;6.00;;;;;32.05;32.15;101230.31;146611;656;46010;-72
2022/07/12 09:00:04;;;;;;;;;4.00;4.00;;;;;32.14;32.23;101230.03;146606;641;46016;-72
2022/07/12 09:03:01;;;;;;;;;5.00;5.00;;;;;31.97;31.69;101189.47;146612;573;46010;-72
2022/07/12 09:06:00;;;;;;;;;6.67;6.33;;;;;32.15;32.45;101234.50;146605;576;46016;-73
2022/07/12 09:08:54;;;;;;;;;5.00;5.00;;;;;32.00;35.17;101226.06;146609;570;46010;-72
2022/07/12 09:11:51;;;;;;;;;6.75;6.75;;;;;31.70;33.79;101236.69;146606;705;46029;-75
2022/07/12 09:14:43;;;;;;;;;8.00;7.00;;;;;31.42;35.93;101231.22;146609;685;46010;-73
2022/07/12 09:17:35;;;;;;;;;6.50;6.50;;;;;31.23;35.37;101229.00;146605;666;46016;-74
2022/07/12 09:20:32;;;;;;;;;7.00;5.00;;;;;31.13;36.09;101229.31;146609;579;45020;-72
2022/07/12 09:23:24;;;;;;;;;6.75;6.00;;;;;31.09;34.62;101225.78;146607;651;46012;-74
2022/07/12 09:26:21;;;;;;;;;7.50;7.00;;;;;30.03;36.80;101065.16;146609;687;46010;-73
2022/07/12 09:29:16;;;;;;;;;6.00;6.00;;;;;30.74;35.23;101229.34;146605;601;47012;-72
2022/07/12 09:38:32;;;;;;;;;6.75;6.75;;;;;30.86;37.38;101233.56;146608;658;46021;-72
2022/07/12 09:41:28;;;;;;;;;7.00;6.50;;;;;30.86;38.61;101231.75;146606;670;46012;-72
2022/07/12 09:44:21;;;;;;;;;7.00;6.25;;;;;29.99;37.77;101078.63;146607;566;46020;-72
2022/07/12 09:47:15;;;;;;;;;5.67;5.33;;;;;30.62;37.69;101214.44;146605;634;46017;-70
2022/07/12 09:50:09;;;;;;;;;5.75;5.75;;;;;30.72;38.56;101234.75;146608;620;46010;-73
2022/07/12 09:53:04;;;;;;;;;5.00;5.00;;;;;30.70;38.96;101227.66;146605;614;46016;-72
2022/07/12 09:55:56;;;;;;;;;8.00;6.75;;;;;30.78;38.61;101239.06;146609;631;46020;-72
2022/07/12 09:58:59;;;;;;;;;6.25;6.25;;;;;30.76;38.91;101227.50;146605;563;46012;-71
2022/07/12 10:01:54;;;;;;;;;7.25;7.25;;;;;30.71;36.81;101224.94;146606;642;46010;-71
2022/07/12 10:04:46;;;;;;;;;6.75;6.75;;;;;30.62;37.15;101230.50;146606;576;46014;-71
2022/07/12 10:07:41;;;;;;;;;6.50;5.75;;;;;30.61;36.91;101221.59;146609;572;46010;-70
2022/07/12 10:10:34;;;;;;;;;7.00;6.00;;;;;30.62;37.48;101217.13;146605;565;46918;-71
2022/07/12 10:13:27;;;;;;;;;4.75;4.75;;;;;30.65;36.58;101218.84;146608;632;47010;-72
2022/07/12 10:16:21;;;;;;;;;7.00;7.00;;;;;30.68;35.77;101219.66;146606;577;46015;-72
2022/07/12 10:19:35;;;;;;;;;7.25;7.25;;;;;30.76;37.85;101224.84;146610;710;46012;-73
2022/07/12 10:22:27;;;;;;;;;6.50;6.50;;;;;30.88;36.44;101227.25;146604;622;46016;-71
2022/07/12 10:25:38;;;;;;;;;7.25;7.25;;;;;30.88;36.93;101229.94;146607;564;46021;-71
2022/07/12 10:29:10;;;;;;;;;8.67;7.67;;;;;29.60;38.49;101014.47;146608;609;46012;-73
2022/07/12 10:32:03;;;;;;;;;6.25;5.50;;;;;30.76;34.85;101217.69;146606;569;46021;-71
2022/07/12 10:35:21;;;;;;;;;6.50;6.50;;;;;29.86;38.17;101070.00;146606;602;46016;-72
2022/07/12 10:38:22;;;;;;;;;6.25;6.25;;;;;30.75;36.02;101204.34;146606;576;46022;-71
2022/07/12 10:41:24;;;;;;;;;6.00;5.50;;;;;30.64;36.44;101199.25;146606;576;46016;-71
2022/07/12 10:44:39;;;;;;;;;5.75;5.75;;;;;30.02;34.88;101102.59;146606;629;46020;-72
2022/07/12 10:47:32;;;;;;;;;7.50;6.50;;;;;30.69;35.24;101194.66;146604;616;46017;-72
2022/07/12 10:50:55;;;;;;;;;6.50;6.50;;;;;30.86;35.47;101194.25;146609;611;46010;-71
2022/07/12 10:53:48;;;;;;;;;6.75;6.75;;;;;30.94;35.80;101183.38;146606;703;46016;-72
2022/07/12 10:56:59;;;;;;;;;5.25;5.25;;;;;31.02;36.54;101192.06;146609;569;46010;-71
2022/07/12 10:59:57;;;;;;;;;9.00;7.00;;;;;31.07;35.82;101190.16;146605;636;46016;-71
2022/07/12 11:02:49;;;;;;;;;7.00;6.00;;;;;31.10;35.16;101189.22;146609;581;45021;-73
2022/07/12 11:05:40;;;;;;;;;5.25;5.25;;;;;31.10;35.30;101179.37;146604;643;46918;-72
2022/07/12 11:08:34;;;;;;;;;7.00;7.00;;;;;30.54;35.57;101101.37;146607;627;46020;-71
2022/07/12 11:11:28;;;;;;;;;4.75;4.75;;;;;30.86;33.91;101180.00;146606;658;46012;-73
2022/07/12 11:14:35;;;;;;;;;5.00;5.00;;;;;30.64;35.09;101174.28;146609;590;46010;-74
2022/07/12 11:17:34;;;;;;;;;6.25;5.75;;;;;30.49;35.42;101160.34;146606;622;46016;-71
2022/07/12 11:20:31;;;;;;;;;6.00;6.00;;;;;30.58;35.65;101162.78;146607;590;46020;-72
2022/07/12 11:23:24;;;;;;;;;5.00;5.00;;;;;30.61;34.16;101159.16;146607;580;46013;-72
2022/07/12 11:26:17;;;;;;;;;8.50;7.00;;;;;30.58;34.92;101160.13;146608;570;46020;-72
2022/07/12 11:29:10;;;;;;;;;6.00;6.00;;;;;30.58;35.09;101154.78;146604;566;47012;-72
2022/07/12 11:32:08;;;;;;;;;5.75;5.00;;;;;30.52;35.56;101154.03;146606;599;46020;-73
2022/07/12 11:35:00;;;;;;;;;7.75;7.75;;;;;30.51;35.47;101149.63;146606;671;46016;-72
2022/07/12 11:37:57;;;;;;;;;6.75;6.75;;;;;30.42;33.41;101145.37;146609;599;46010;-73
2022/07/12 11:40:58;;;;;;;;;7.25;7.25;;;;;30.40;35.06;101144.50;146605;619;46016;-72
2022/07/12 11:43:50;;;;;;;;;8.00;7.50;;;;;30.33;34.08;101137.56;146605;589;46020;-73
2022/07/12 11:46:42;;;;;;;;;6.75;6.00;;;;;30.27;34.63;101130.56;146605;681;46017;-75
2022/07/12 11:49:35;;;;;;;;;5.67;5.67;;;;;30.00;32.51;101129.41;146611;617;46010;-72
2022/07/12 11:52:29;;;;;;;;;8.25;7.50;;;;;29.90;35.02;101122.47;146602;598;46016;-74
2022/07/12 11:55:22;;;;;;;;;6.00;5.67;;;;;29.93;36.13;101123.28;146613;577;46010;-73
2022/07/12 11:58:15;;;;;;;;;7.00;6.75;;;;;30.03;36.14;101123.97;146606;568;46012;-69
2022/07/12 12:01:07;;;;;;;;;7.67;7.33;;;;;30.12;35.07;101128.22;146609;606;46021;-72
2022/07/12 12:03:59;;;;;;;;;7.00;7.00;;;;;29.20;37.33;100960.13;146608;628;46012;-75
2022/07/12 12:06:52;;;;;;;;;6.00;6.00;;;;;30.26;36.78;101134.16;146606;565;46020;-73
2022/07/12 12:10:03;;;;;;;;;7.00;6.00;;;;;30.28;35.95;101124.31;146607;595;46012;-73
2022/07/12 12:13:00;;;;;;;;;6.50;6.50;;;;;30.30;36.48;101126.94;146607;569;46020;-76
2022/07/12 12:16:06;;;;;;;;;7.00;5.75;;;;;29.35;36.50;100950.03;146606;611;46013;-76
2022/07/12 12:18:59;;;;;;;;;6.50;6.50;;;;;30.35;35.15;101120.56;146607;685;46020;-71
2022/07/12 12:21:51;;;;;;;;;7.50;7.25;;;;;30.05;33.09;101122.13;146605;564;46918;-72
2022/07/12 12:24:43;;;;;;;;;5.33;5.33;;;;;29.84;34.78;101114.59;146607;601;47012;-74
2022/07/12 12:27:35;;;;;;;;;5.00;5.00;;;;;29.71;35.81;101124.69;146606;670;46014;-70
2022/07/12 12:30:28;;;;;;;;;8.33;7.00;;;;;29.54;35.11;101119.66;146607;567;46020;-70
2022/07/12 12:33:47;;;;;;;;;7.00;7.00;;;;;29.44;34.95;101108.31;146606;698;46918;-73
2022/07/12 12:36:42;;;;;;;;;7.25;6.50;;;;;29.44;36.25;101107.44;146611;588;45020;-72
2022/07/12 12:39:35;;;;;;;;;6.67;6.67;;;;;29.49;36.27;101104.66;146605;604;46014;-73
2022/07/12 12:42:30;;;;;;;;;7.67;7.00;;;;;29.56;35.27;101104.47;146609;594;46010;-70
2022/07/12 12:45:31;;;;;;;;;5.67;5.67;;;;;29.70;35.85;101104.22;146607;599;46013;-71
2022/07/12 12:48:27;;;;;;;;;6.25;6.25;;;;;29.82;35.08;101095.06;146608;590;46020;-71
2022/07/12 12:51:20;;;;;;;;;8.33;6.67;;;;;29.93;35.82;101082.31;146606;574;46016;-69
2022/07/12 12:54:12;;;;;;;;;5.00;5.00;;;;;29.98;35.88;101077.75;146609;716;47010;-71
2022/07/12 12:57:04;;;;;;;;;7.67;7.67;;;;;30.04;35.04;101090.97;146607;571;46016;-76
2022/07/12 12:59:57;;;;;;;;;8.33;8.33;;;;;30.09;35.22;101085.50;146607;590;46010;-75
2022/07/12 13:02:50;;;;;;;;;6.00;6.00;;;;;30.16;35.68;101079.09;146604;566;46016;-74
2022/07/12 13:05:43;;;;;;;;;7.00;6.50;;;;;30.17;36.32;101074.63;146604;582;46020;-74
2022/07/12 13:08:35;;;;;;;;;8.00;8.00;;;;;30.17;34.65;101071.94;146606;572;45017;-76
2022/07/12 13:11:27;;;;;;;;;5.50;5.50;;;;;30.21;35.97;101062.97;146609;569;46020;-70
2022/07/12 13:14:19;;;;;;;;;7.25;6.25;;;;;30.33;35.81;101060.84;146606;694;46013;-74
2022/07/12 13:17:11;;;;;;;;;7.00;5.75;;;;;30.47;35.06;101062.28;146611;579;46010;-73
2022/07/12 13:20:04;;;;;;;;;5.50;5.50;;;;;30.42;35.59;101058.88;146606;684;47014;-75
2022/07/12 13:22:56;;;;;;;;;7.00;6.00;;;;;30.40;35.10;101041.97;146607;590;46021;-75
2022/07/12 13:25:48;;;;;;;;;5.33;5.33;;;;;30.43;35.16;101047.25;146606;563;46918;-76
2022/07/12 13:28:41;;;;;;;;;4.00;4.00;;;;;30.34;33.21;101053.69;146607;601;46021;-74
2022/07/12 13:31:32;;;;;;;;;6.00;6.00;;;;;30.35;35.29;101045.66;146607;653;46016;-77
2022/07/12 13:34:25;;;;;;;;;7.25;7.25;;;;;30.28;33.90;101048.50;146608;660;46010;-76
2022/07/12 13:37:18;;;;;;;;;5.00;4.75;;;;;30.33;34.43;101050.16;146608;607;46014;-78
2022/07/12 13:40:11;;;;;;;;;7.25;7.00;;;;;30.39;34.75;101043.78;146606;708;46020;-76
2022/07/12 13:43:03;;;;;;;;;5.00;4.33;;;;;30.48;34.41;101043.53;146607;583;46016;-75
2022/07/12 13:45:55;;;;;;;;;10.00;7.00;;;;;30.55;33.74;101045.12;146610;653;46020;-74